createdAt,value
2018-05-25T00:00:52.709Z,18.60
2018-05-25T00:03:20.362Z,20.80
2018-05-25T00:05:48.081Z,19.40
2018-05-25T00:08:15.651Z,19.73
2018-05-25T00:10:43.557Z,20.07
2018-05-25T00:13:11.276Z,20.00
2018-05-25T00:15:38.932Z,20.00
2018-05-25T00:18:06.956Z,19.70
2018-05-25T00:20:34.787Z,19.63
2018-05-25T00:23:02.367Z,17.30
2018-05-25T00:25:30.459Z,16.73
2018-05-25T00:27:58.067Z,16.93
2018-05-25T00:30:25.984Z,16.60
2018-05-25T00:32:53.593Z,17.80
2018-05-25T00:35:21.243Z,17.23
2018-05-25T00:37:49.384Z,18.83
2018-05-25T00:40:16.990Z,19.17
2018-05-25T00:43:02.291Z,19.37
2018-05-25T00:45:29.872Z,18.57
2018-05-25T00:47:57.677Z,17.50
2018-05-25T00:50:25.440Z,19.33
2018-05-25T00:52:53.088Z,19.37
2018-05-25T00:55:32.590Z,20.63
2018-05-25T00:58:00.193Z,20.87
2018-05-25T01:00:28.149Z,20.20
2018-05-25T01:02:55.756Z,19.97
2018-05-25T01:05:23.355Z,22.10
2018-05-25T01:07:50.930Z,19.80
2018-05-25T01:10:18.599Z,18.10
2018-05-25T01:12:46.605Z,17.87
2018-05-25T01:15:14.251Z,16.67
2018-05-25T01:17:41.856Z,14.40
2018-05-25T01:20:09.477Z,14.67
2018-05-25T01:22:37.256Z,13.57
2018-05-25T01:25:04.871Z,14.60
2018-05-25T01:27:32.537Z,12.20
2018-05-25T01:30:00.167Z,10.90
2018-05-25T01:32:27.741Z,9.57
2018-05-25T01:34:55.391Z,10.70
2018-05-25T01:37:23.047Z,10.30
2018-05-25T01:39:50.644Z,8.67
2018-05-25T01:42:18.665Z,8.50
2018-05-25T01:44:46.250Z,8.37
2018-05-25T01:47:13.841Z,8.30
2018-05-25T01:49:41.496Z,7.07
2018-05-25T01:52:09.380Z,7.60
2018-05-25T01:54:37.207Z,7.73
2018-05-25T01:57:04.821Z,8.60
2018-05-25T01:59:32.461Z,7.20
2018-05-25T02:02:00.160Z,6.50
2018-05-25T02:04:27.784Z,5.93
2018-05-25T02:06:55.619Z,5.50
2018-05-25T02:09:23.251Z,5.40
2018-05-25T02:11:51.227Z,5.40
2018-05-25T02:14:18.808Z,4.67
2018-05-25T02:16:46.732Z,5.73
2018-05-25T02:19:15.093Z,5.30
2018-05-25T02:21:42.958Z,5.00
2018-05-25T02:24:10.733Z,4.20
2018-05-25T02:26:38.673Z,4.30
2018-05-25T02:29:06.276Z,3.73
2018-05-25T02:31:34.109Z,4.70
2018-05-25T02:34:01.717Z,4.07
2018-05-25T02:36:29.357Z,4.30
2018-05-25T02:38:57.296Z,3.33
2018-05-25T02:41:24.874Z,3.57
2018-05-25T02:43:52.495Z,3.60
2018-05-25T02:46:20.077Z,3.80
2018-05-25T02:48:47.879Z,4.33
2018-05-25T02:51:15.528Z,3.40
2018-05-25T02:53:43.886Z,3.90
2018-05-25T02:56:11.489Z,3.37
2018-05-25T02:58:39.081Z,3.97
2018-05-25T03:01:06.740Z,3.10
2018-05-25T03:03:34.638Z,3.70
2018-05-25T03:06:02.248Z,3.33
2018-05-25T03:08:30.345Z,3.77
2018-05-25T03:10:57.999Z,3.77
2018-05-25T03:13:25.577Z,4.10
2018-05-25T03:15:53.172Z,3.87
2018-05-25T03:18:20.745Z,4.00
2018-05-25T03:20:48.375Z,3.40
2018-05-25T03:23:15.954Z,3.57
2018-05-25T03:25:43.782Z,3.60
2018-05-25T03:28:11.416Z,2.93
2018-05-25T03:30:39.027Z,3.20
2018-05-25T03:33:06.614Z,3.37
2018-05-25T03:35:34.618Z,3.67
2018-05-25T03:38:02.530Z,3.50
2018-05-25T03:40:30.124Z,3.30
2018-05-25T03:46:09.912Z,3.37
2018-05-25T03:48:37.557Z,3.00
2018-05-25T03:51:05.384Z,3.70
2018-05-25T03:53:33.104Z,3.20
2018-05-25T03:56:00.815Z,3.73
2018-05-25T03:58:40.257Z,3.03
2018-05-25T04:01:19.425Z,3.43
2018-05-25T04:03:47.101Z,3.27
2018-05-25T04:06:14.743Z,3.47
2018-05-25T04:08:42.477Z,3.63
2018-05-25T04:11:10.076Z,3.10
2018-05-25T04:13:37.673Z,3.53
2018-05-25T04:16:05.949Z,3.17
2018-05-25T04:18:33.555Z,3.27
2018-05-25T04:21:01.149Z,3.70
2018-05-25T04:23:28.849Z,2.90
2018-05-25T04:25:56.510Z,4.43
2018-05-25T04:28:24.552Z,3.40
2018-05-25T04:30:52.201Z,3.93
2018-05-25T04:33:19.786Z,3.43
2018-05-25T04:35:47.742Z,3.17
2018-05-25T04:38:15.553Z,3.60
2018-05-25T04:40:43.165Z,4.17
2018-05-25T04:43:10.885Z,3.27
2018-05-25T04:45:38.836Z,3.40
2018-05-25T04:48:06.747Z,3.47
2018-05-25T04:50:34.406Z,3.30
2018-05-25T04:53:02.025Z,3.73
2018-05-25T04:55:29.609Z,3.50
2018-05-25T04:57:57.220Z,3.80
2018-05-25T05:00:24.879Z,3.73
2018-05-25T05:02:52.476Z,3.30
2018-05-25T05:05:20.066Z,3.90
2018-05-25T05:07:47.789Z,4.20
2018-05-25T05:10:15.571Z,3.80
2018-05-25T05:12:43.148Z,4.03
2018-05-25T05:15:10.760Z,4.20
2018-05-25T05:17:38.372Z,4.53
2018-05-25T05:20:05.954Z,3.77
2018-05-25T05:22:33.588Z,4.20
2018-05-25T05:25:01.230Z,3.63
2018-05-25T05:27:29.016Z,3.57
2018-05-25T05:29:57.476Z,4.10
2018-05-25T05:32:25.337Z,3.90
2018-05-25T05:34:53.059Z,3.47
2018-05-25T05:37:20.728Z,4.40
2018-05-25T05:39:48.326Z,4.00
2018-05-25T05:42:16.065Z,4.53
2018-05-25T05:44:43.709Z,3.50
2018-05-25T05:47:11.343Z,4.30
2018-05-25T05:49:39.029Z,4.33
2018-05-25T05:52:06.651Z,3.90
2018-05-25T05:54:34.257Z,4.27
2018-05-25T05:57:01.864Z,4.40
2018-05-25T05:59:29.686Z,3.67
2018-05-25T06:01:57.329Z,4.27
2018-05-25T06:04:25.230Z,4.60
2018-05-25T06:06:52.873Z,4.33
2018-05-25T06:09:20.522Z,4.10
2018-05-25T06:11:48.456Z,4.40
2018-05-25T06:14:16.087Z,3.80
2018-05-25T06:16:43.676Z,5.17
2018-05-25T06:19:11.250Z,4.73
2018-05-25T06:21:38.926Z,4.43
2018-05-25T06:24:06.514Z,4.00
2018-05-25T06:26:34.110Z,4.10
2018-05-25T06:29:01.699Z,3.57
2018-05-25T06:31:29.281Z,4.10
2018-05-25T06:33:56.897Z,4.60
2018-05-25T06:36:24.991Z,4.53
2018-05-25T06:38:52.583Z,4.40
2018-05-25T06:41:20.159Z,4.97
2018-05-25T06:43:47.999Z,5.13
2018-05-25T06:46:15.581Z,4.30
2018-05-25T06:48:43.168Z,4.80
2018-05-25T06:51:10.774Z,4.27
2018-05-25T06:53:38.504Z,5.50
2018-05-25T06:56:06.081Z,4.83
2018-05-25T06:58:33.741Z,5.00
2018-05-25T07:01:01.437Z,5.57
2018-05-25T07:03:29.025Z,5.13
2018-05-25T07:05:56.625Z,5.27
2018-05-25T07:08:24.246Z,5.43
2018-05-25T07:10:51.954Z,5.07
2018-05-25T07:13:19.525Z,4.47
2018-05-25T07:15:47.098Z,4.90
2018-05-25T07:18:14.872Z,5.20
2018-05-25T07:20:42.545Z,4.70
2018-05-25T07:23:10.112Z,5.67
2018-05-25T07:25:38.526Z,4.80
2018-05-25T07:28:06.107Z,6.10
2018-05-25T07:30:33.673Z,5.60
2018-05-25T07:33:02.035Z,4.50
2018-05-25T07:35:29.708Z,4.63
2018-05-25T07:37:57.301Z,5.20
2018-05-25T07:40:24.910Z,4.80
2018-05-25T07:42:52.481Z,5.27
2018-05-25T07:45:20.109Z,5.20
2018-05-25T07:47:47.757Z,5.40
2018-05-25T07:50:15.479Z,4.83
2018-05-25T07:52:43.141Z,4.53
2018-05-25T07:55:10.763Z,5.93
2018-05-25T07:57:38.480Z,4.53
2018-05-25T08:00:06.095Z,5.07
2018-05-25T08:02:33.663Z,5.30
2018-05-25T08:05:01.717Z,5.37
2018-05-25T08:07:29.308Z,5.07
2018-05-25T08:09:56.902Z,6.10
2018-05-25T08:12:24.546Z,5.53
2018-05-25T08:14:52.240Z,5.47
2018-05-25T08:17:19.834Z,5.40
2018-05-25T08:19:47.529Z,5.10
2018-05-25T08:22:15.162Z,5.07
2018-05-25T08:24:42.887Z,5.33
2018-05-25T08:27:10.462Z,5.30
2018-05-25T08:29:38.117Z,5.67
2018-05-25T08:32:05.747Z,4.50
2018-05-25T08:34:39.157Z,5.40
2018-05-25T08:37:07.094Z,4.90
2018-05-25T08:39:34.724Z,4.80
2018-05-25T08:42:02.375Z,4.40
2018-05-25T08:44:29.979Z,5.90
2018-05-25T08:46:57.576Z,5.30
2018-05-25T08:49:25.284Z,5.40
2018-05-25T08:51:53.382Z,6.00
2018-05-25T08:54:21.061Z,7.40
2018-05-25T08:56:48.691Z,5.53
2018-05-25T08:59:16.331Z,6.80
2018-05-25T09:01:43.957Z,6.03
2018-05-25T09:04:11.584Z,5.50
2018-05-25T09:06:39.172Z,5.57
2018-05-25T09:09:07.148Z,6.00
2018-05-25T09:11:34.806Z,5.70
2018-05-25T09:14:02.510Z,7.40
2018-05-25T09:16:30.203Z,6.13
2018-05-25T09:18:57.799Z,5.37
2018-05-25T09:21:25.390Z,5.53
2018-05-25T09:23:53.078Z,6.40
2018-05-25T09:26:21.128Z,6.20
2018-05-25T09:28:48.784Z,6.87
2018-05-25T09:31:16.364Z,6.37
2018-05-25T09:33:44.284Z,7.00
2018-05-25T09:36:12.090Z,6.10
2018-05-25T09:38:39.700Z,5.90
2018-05-25T09:41:07.656Z,6.70
2018-05-25T09:43:35.226Z,6.87
2018-05-25T09:46:03.076Z,5.97
2018-05-25T09:48:30.615Z,6.70
2018-05-25T09:50:58.210Z,5.80
2018-05-25T09:53:25.790Z,6.57
2018-05-25T09:55:53.407Z,5.60
2018-05-25T09:58:21.008Z,6.40
2018-05-25T10:00:48.640Z,6.40
2018-05-25T10:03:16.257Z,7.50
2018-05-25T10:05:44.200Z,6.37
2018-05-25T10:08:11.789Z,7.00
2018-05-25T10:10:39.375Z,7.93
2018-05-25T10:13:07.232Z,7.00
2018-05-25T10:15:35.117Z,7.13
2018-05-25T10:18:02.838Z,7.97
2018-05-25T10:20:30.658Z,6.77
2018-05-25T10:22:58.530Z,7.70
2018-05-25T10:25:26.141Z,8.57
2018-05-25T10:27:54.047Z,7.63
2018-05-25T10:30:22.019Z,6.90
2018-05-25T10:32:49.683Z,7.30
2018-05-25T10:35:17.255Z,7.83
2018-05-25T10:37:44.978Z,8.07
2018-05-25T10:40:12.566Z,6.43
2018-05-25T10:42:40.142Z,6.23
2018-05-25T10:45:07.735Z,7.03
2018-05-25T10:47:35.812Z,7.37
2018-05-25T10:50:03.631Z,6.73
2018-05-25T10:52:31.292Z,6.20
2018-05-25T10:54:58.966Z,6.37
2018-05-25T10:57:26.537Z,5.23
2018-05-25T10:59:54.133Z,5.30
2018-05-25T11:02:21.955Z,5.27
2018-05-25T11:04:49.655Z,6.50
2018-05-25T11:07:17.243Z,5.20
2018-05-25T11:09:44.832Z,6.13
2018-05-25T11:12:12.487Z,5.57
2018-05-25T11:14:40.210Z,5.00
2018-05-25T11:17:07.804Z,6.00
2018-05-25T11:19:53.120Z,5.30
2018-05-25T11:22:20.948Z,4.97
2018-05-25T11:24:48.558Z,6.13
2018-05-25T11:27:16.155Z,5.73
2018-05-25T11:29:43.757Z,5.67
2018-05-25T11:32:11.340Z,5.60
2018-05-25T11:34:38.957Z,6.40
2018-05-25T11:37:06.566Z,4.80
2018-05-25T11:39:34.144Z,6.67
2018-05-25T11:42:01.911Z,7.20
2018-05-25T11:44:29.591Z,5.43
2018-05-25T11:46:57.251Z,5.43
2018-05-25T11:49:24.838Z,5.70
2018-05-25T11:51:52.443Z,5.33
2018-05-25T11:54:20.024Z,6.50
2018-05-25T11:56:47.639Z,5.50
2018-05-25T11:59:15.415Z,5.30
2018-05-25T12:01:43.011Z,5.80
2018-05-25T12:04:10.816Z,5.60
2018-05-25T12:06:38.525Z,5.17
2018-05-25T12:09:06.932Z,5.50
2018-05-25T12:11:34.530Z,5.53
2018-05-25T12:14:02.200Z,4.87
2018-05-25T12:16:29.794Z,5.20
2018-05-25T12:18:57.496Z,7.57
2018-05-25T12:21:25.090Z,5.17
2018-05-25T12:23:52.673Z,5.70
2018-05-25T12:26:20.399Z,6.10
2018-05-25T12:28:47.974Z,4.73
2018-05-25T12:31:15.565Z,4.47
2018-05-25T12:33:43.166Z,4.70
2018-05-25T12:36:10.980Z,5.00
2018-05-25T12:38:38.607Z,4.67
2018-05-25T12:41:06.612Z,4.73
2018-05-25T12:43:34.191Z,4.53
2018-05-25T12:46:01.892Z,4.30
2018-05-25T12:48:29.548Z,7.80
2018-05-25T12:50:57.193Z,4.20
2018-05-25T12:53:25.328Z,4.70
2018-05-25T12:55:53.150Z,3.93
2018-05-25T12:58:20.723Z,5.00
2018-05-25T13:00:48.710Z,4.90
2018-05-25T13:03:16.529Z,4.70
2018-05-25T13:05:44.399Z,4.63
2018-05-25T13:08:12.019Z,4.70
2018-05-25T13:10:39.689Z,4.63
2018-05-25T13:13:07.266Z,4.47
2018-05-25T13:15:35.211Z,4.50
2018-05-25T13:18:02.792Z,5.67
2018-05-25T13:20:30.372Z,4.13
2018-05-25T13:22:58.349Z,4.40
2018-05-25T13:25:26.155Z,4.27
2018-05-25T13:27:53.724Z,4.47
2018-05-25T13:30:21.342Z,4.50
2018-05-25T13:32:49.334Z,6.17
2018-05-25T13:35:16.909Z,4.43
2018-05-25T13:37:44.475Z,4.50
2018-05-25T13:40:12.312Z,5.70
2018-05-25T13:42:39.881Z,6.10
2018-05-25T13:45:07.492Z,4.70
2018-05-25T13:47:35.060Z,5.63
2018-05-25T13:50:02.941Z,10.77
2018-05-25T13:52:30.520Z,6.63
2018-05-25T13:54:58.233Z,4.77
2018-05-25T13:57:25.852Z,4.53
2018-05-25T13:59:53.479Z,4.80
2018-05-25T14:02:21.111Z,4.90
2018-05-25T14:04:48.698Z,5.03
2018-05-25T14:07:18.183Z,5.17
2018-05-25T14:09:46.165Z,5.03
2018-05-25T14:12:13.746Z,5.17
2018-05-25T14:14:41.340Z,16.00
2018-05-25T14:17:08.971Z,4.77
2018-05-25T14:19:36.565Z,25.70
2018-05-25T14:22:04.555Z,29.57
2018-05-25T14:24:32.575Z,5.67
2018-05-25T14:27:00.243Z,5.83
2018-05-25T14:29:27.920Z,4.33
2018-05-25T14:31:55.517Z,3.87
2018-05-25T14:34:23.168Z,4.60
2018-05-25T14:36:51.148Z,5.40
2018-05-25T14:39:18.794Z,5.50
2018-05-25T14:41:46.357Z,4.30
2018-05-25T14:44:13.988Z,5.00
2018-05-25T14:46:41.632Z,7.83
2018-05-25T14:49:09.440Z,5.57
2018-05-25T14:51:37.504Z,5.93
2018-05-25T14:54:05.100Z,4.40
2018-05-25T14:56:32.684Z,5.83
2018-05-25T14:59:01.019Z,4.40
2018-05-25T15:01:28.566Z,4.50
2018-05-25T15:03:56.384Z,5.00
2018-05-25T15:06:24.116Z,6.30
2018-05-25T15:08:51.783Z,4.70
2018-05-25T15:11:19.422Z,6.10
2018-05-25T15:13:46.983Z,5.17
2018-05-25T15:16:15.067Z,4.67
2018-05-25T15:18:42.647Z,4.40
2018-05-25T15:21:10.525Z,4.60
2018-05-25T15:23:38.241Z,5.00
2018-05-25T15:26:05.785Z,6.23
2018-05-25T15:28:33.368Z,5.07
2018-05-25T15:31:01.040Z,5.30
2018-05-25T15:33:29.055Z,3.80
2018-05-25T15:35:56.868Z,4.60
2018-05-25T15:38:24.509Z,4.20
2018-05-25T15:40:52.232Z,7.23
2018-05-25T15:43:20.100Z,8.23
2018-05-25T15:45:47.681Z,7.47
2018-05-25T15:48:15.542Z,4.83
2018-05-25T15:50:43.120Z,4.20
2018-05-25T15:53:10.699Z,4.70
2018-05-25T15:55:38.305Z,4.40
2018-05-25T15:58:05.963Z,4.93
2018-05-25T16:00:33.566Z,4.30
2018-05-25T16:03:01.147Z,4.87
2018-05-25T16:05:29.230Z,3.97
2018-05-25T16:07:56.877Z,4.10
2018-05-25T16:10:24.924Z,3.87
2018-05-25T16:12:52.782Z,4.20
2018-05-25T16:15:20.595Z,4.10
2018-05-25T16:17:48.190Z,3.87
2018-05-25T16:20:15.847Z,5.73
2018-05-25T16:22:43.467Z,4.00
2018-05-25T16:25:11.474Z,3.97
2018-05-25T16:27:39.130Z,4.13
2018-05-25T16:30:06.756Z,4.37
2018-05-25T16:32:34.704Z,4.33
2018-05-25T16:35:02.579Z,4.23
2018-05-25T16:37:30.596Z,4.50
2018-05-25T16:39:58.186Z,4.23
2018-05-25T16:42:26.006Z,3.93
2018-05-25T16:44:53.856Z,4.03
2018-05-25T16:47:21.579Z,4.40
2018-05-25T16:49:49.402Z,4.57
2018-05-25T16:52:16.970Z,4.70
2018-05-25T16:54:44.585Z,4.07
2018-05-25T16:57:12.232Z,4.90
2018-05-25T16:59:39.830Z,4.23
2018-05-25T17:02:07.774Z,5.10
2018-05-25T17:04:35.372Z,4.80
2018-05-25T17:07:02.966Z,5.73
2018-05-25T17:09:30.548Z,4.70
2018-05-25T17:11:58.176Z,4.43
2018-05-25T17:14:25.788Z,4.53
2018-05-25T17:16:53.395Z,5.53
2018-05-25T17:19:21.026Z,5.10
2018-05-25T17:21:48.613Z,5.10
2018-05-25T17:24:16.701Z,5.00
2018-05-25T17:26:44.285Z,5.57
2018-05-25T17:29:11.966Z,5.20
2018-05-25T17:31:39.610Z,5.30
2018-05-25T17:34:07.257Z,5.30
2018-05-25T17:36:34.840Z,5.03
2018-05-25T17:39:02.548Z,5.50
2018-05-25T17:41:30.135Z,5.10
2018-05-25T17:43:57.877Z,6.10
2018-05-25T17:46:25.635Z,5.60
2018-05-25T17:48:53.206Z,5.10
2018-05-25T17:51:20.769Z,6.13
2018-05-25T17:53:48.726Z,5.20
2018-05-25T17:56:16.355Z,5.20
2018-05-25T17:58:45.154Z,5.07
2018-05-25T18:01:12.743Z,6.30
2018-05-25T18:03:40.380Z,5.03
2018-05-25T18:06:08.000Z,5.37
2018-05-25T18:08:35.614Z,7.10
2018-05-25T18:11:03.582Z,7.23
2018-05-25T18:13:31.181Z,5.83
2018-05-25T18:15:58.746Z,5.50
2018-05-25T18:18:26.369Z,5.77
2018-05-25T18:20:54.310Z,5.50
2018-05-25T18:23:22.402Z,8.27
2018-05-25T18:25:50.349Z,6.70
2018-05-25T18:28:18.349Z,5.57
2018-05-25T18:30:46.000Z,5.93
2018-05-25T18:33:13.591Z,5.70
2018-05-25T18:35:41.246Z,5.27
2018-05-25T18:38:08.840Z,5.50
2018-05-25T18:40:36.476Z,5.67
2018-05-25T18:43:04.292Z,5.80
2018-05-25T18:45:31.875Z,5.07
2018-05-25T18:47:59.492Z,5.50
2018-05-25T18:50:27.460Z,5.87
2018-05-25T18:52:55.087Z,5.80
2018-05-25T18:55:22.656Z,5.90
2018-05-25T18:57:50.491Z,5.67
2018-05-25T19:00:18.161Z,5.60
2018-05-25T19:02:46.170Z,5.40
2018-05-25T19:05:13.865Z,4.60
2018-05-25T19:07:41.683Z,5.50
2018-05-25T19:10:09.618Z,5.73
2018-05-25T19:12:37.190Z,5.00
2018-05-25T19:15:04.823Z,5.43
2018-05-25T19:17:32.550Z,5.93
2018-05-25T19:20:00.177Z,5.20
2018-05-25T19:22:27.786Z,5.00
2018-05-25T19:24:55.392Z,5.40
2018-05-25T19:27:23.004Z,5.40
2018-05-25T19:29:51.012Z,6.07
2018-05-25T19:32:18.667Z,6.10
2018-05-25T19:34:46.278Z,5.73
2018-05-25T19:37:13.950Z,5.83
2018-05-25T19:39:41.605Z,5.13
2018-05-25T19:42:09.340Z,5.97
2018-05-25T19:44:37.384Z,5.57
2018-05-25T19:47:04.974Z,6.30
2018-05-25T19:49:32.861Z,6.87
2018-05-25T19:52:00.782Z,6.47
2018-05-25T19:54:28.378Z,7.20
2018-05-25T19:56:55.958Z,6.90
2018-05-25T19:59:23.624Z,11.20
2018-05-25T20:01:51.549Z,11.93
2018-05-25T20:04:19.313Z,11.60
2018-05-25T20:06:47.029Z,12.17
2018-05-25T20:09:14.900Z,13.80
2018-05-25T20:11:42.547Z,14.43
2018-05-25T20:14:10.135Z,16.43
2018-05-25T20:16:37.910Z,11.30
2018-05-25T20:19:05.852Z,11.00
2018-05-25T20:21:34.253Z,11.90
2018-05-25T20:24:01.979Z,10.60
2018-05-25T20:26:29.606Z,10.70
2018-05-25T20:28:57.728Z,9.20
2018-05-25T20:31:25.393Z,9.50
2018-05-25T20:33:53.087Z,8.60
2018-05-25T20:36:20.852Z,8.57
2018-05-25T20:38:48.493Z,9.73
2018-05-25T20:41:16.226Z,8.67
2018-05-25T20:43:43.871Z,8.97
2018-05-25T20:46:11.461Z,8.60
2018-05-25T20:48:39.434Z,7.90
2018-05-25T20:51:07.016Z,7.30
2018-05-25T20:53:34.588Z,6.70
2018-05-25T20:56:02.212Z,5.67
2018-05-25T20:58:29.938Z,5.97
2018-05-25T21:00:57.945Z,6.10
2018-05-25T21:03:25.528Z,4.50
2018-05-25T21:05:53.102Z,5.10
2018-05-25T21:08:20.713Z,4.40
2018-05-25T21:10:48.295Z,4.40
2018-05-25T21:13:16.299Z,4.70
2018-05-25T21:15:43.945Z,4.53
2018-05-25T21:18:11.511Z,4.40
2018-05-25T21:20:39.117Z,4.00
2018-05-25T21:23:06.693Z,3.10
2018-05-25T21:25:34.295Z,3.93
2018-05-25T21:28:02.133Z,3.80
2018-05-25T21:30:30.037Z,3.87
2018-05-25T21:32:57.872Z,3.30
2018-05-25T21:35:25.466Z,3.33
2018-05-25T21:37:53.117Z,3.10
2018-05-25T21:40:20.742Z,2.77
2018-05-25T21:42:48.314Z,3.30
2018-05-25T21:45:16.173Z,3.43
2018-05-25T21:47:43.743Z,3.70
2018-05-25T21:50:11.357Z,2.23
2018-05-25T21:52:39.848Z,3.43
2018-05-25T21:55:08.135Z,4.67
2018-05-25T21:57:35.775Z,3.47
2018-05-25T22:00:03.354Z,3.57
2018-05-25T22:02:31.323Z,3.10
2018-05-25T22:04:58.929Z,2.70
2018-05-25T22:07:26.648Z,3.80
2018-05-25T22:09:54.230Z,2.60
2018-05-25T22:12:22.046Z,3.13
2018-05-25T22:14:49.685Z,3.10
2018-05-25T22:17:17.258Z,2.60
2018-05-25T22:19:44.834Z,3.30
2018-05-25T22:22:12.769Z,2.67
2018-05-25T22:24:40.345Z,2.90
2018-05-25T22:27:07.946Z,3.40
2018-05-25T22:29:35.654Z,3.10
2018-05-25T22:32:03.600Z,3.07
2018-05-25T22:34:31.261Z,2.90
2018-05-25T22:36:58.863Z,2.87
2018-05-25T22:39:26.450Z,2.50
2018-05-25T22:41:56.532Z,2.97
2018-05-25T22:44:36.294Z,3.03
2018-05-25T22:47:16.008Z,2.97
2018-05-25T22:49:55.272Z,2.63
2018-05-25T22:52:27.796Z,2.80
2018-05-25T22:54:57.330Z,3.77
2018-05-25T22:57:25.159Z,2.77
2018-05-25T22:59:53.150Z,2.83
2018-05-25T23:02:20.743Z,3.47
2018-05-25T23:04:48.336Z,2.73
2018-05-25T23:07:16.321Z,2.97
2018-05-25T23:09:43.925Z,2.97
2018-05-25T23:12:11.576Z,2.60
2018-05-25T23:14:39.181Z,2.50
2018-05-25T23:17:06.777Z,3.30
2018-05-25T23:19:34.454Z,2.73
2018-05-25T23:22:02.256Z,2.60
2018-05-25T23:24:29.864Z,2.73
2018-05-25T23:26:57.469Z,2.80
2018-05-25T23:29:25.369Z,2.90
2018-05-25T23:31:52.993Z,3.10
2018-05-25T23:34:20.880Z,2.83
2018-05-25T23:36:48.632Z,2.37
2018-05-25T23:39:16.288Z,2.20
2018-05-25T23:41:43.869Z,2.50
2018-05-25T23:44:11.765Z,2.97
2018-05-25T23:46:39.333Z,3.33
2018-05-25T23:49:06.912Z,3.20
2018-05-25T23:51:34.789Z,2.93
2018-05-25T23:54:02.592Z,2.87
2018-05-25T23:56:30.172Z,2.53
2018-05-25T23:58:58.118Z,2.50
